Time;durP1;ratioP1;P1;durP2;ratioP2;P2;SDS_P1;SDS_P2;PMS_P1;PMS_P2;Temp;Humidity;BMP_temperature;BMP_pressure;BME280_temperature;BME280_humidity;BME280_pressure;Samples;Min_cycle;Max_cycle;Signal;HPM_P1;HPM_P2
2022/10/02 00:01:21;;;;;;;0.45;0.45;;;;;;;12.92;86.24;99374.56;5093944;28;20542;-66
2022/10/02 00:03:50;;;;;;;0.40;0.40;;;;;;;12.88;86.43;99370.34;5093858;28;20071;-67
2022/10/02 00:06:23;;;;;;;0.30;0.30;;;;;;;12.89;86.11;99372.03;5093799;28;20046;-67
2022/10/02 00:08:59;;;;;;;0.40;0.40;;;;;;;12.88;86.48;99374.63;5094006;28;20048;-66
2022/10/02 00:11:37;;;;;;;0.35;0.35;;;;;;;12.86;86.69;99382.31;5093827;28;20067;-67
2022/10/02 00:14:11;;;;;;;0.73;0.73;;;;;;;12.88;87.16;99385.72;5094065;28;20070;-67
2022/10/02 00:16:44;;;;;;;0.55;0.55;;;;;;;12.87;87.18;99391.69;5093692;28;20047;-67
2022/10/02 00:19:16;;;;;;;0.77;0.55;;;;;;;12.86;87.39;99395.13;5093797;28;20097;-67
2022/10/02 00:21:59;;;;;;;0.40;0.40;;;;;;;12.87;87.46;99389.13;5093986;28;20555;-67
2022/10/02 00:24:37;;;;;;;0.28;0.28;;;;;;;12.86;87.85;99395.13;5093651;28;20130;-67
2022/10/02 00:27:18;;;;;;;0.35;0.35;;;;;;;12.85;87.77;99396.00;5093622;28;20056;-67
2022/10/02 00:29:51;;;;;;;0.43;0.43;;;;;;;12.87;87.93;99409.63;5093642;28;20051;-66
2022/10/02 00:32:29;;;;;;;0.30;0.30;;;;;;;12.88;88.12;99401.09;5097922;28;20048;-66
2022/10/02 00:35:32;;;;;;;0.30;0.30;;;;;;;12.85;87.89;99401.13;5098033;28;20375;-67
2022/10/02 00:38:11;;;;;;;0.50;0.50;;;;;;;12.91;88.26;99403.59;5098023;28;20082;-67
2022/10/02 00:41:04;;;;;;;0.50;0.50;;;;;;;12.87;88.28;99394.25;5097699;28;20087;-66
2022/10/02 00:43:43;;;;;;;2.22;0.50;;;;;;;12.78;88.18;99392.69;5097554;28;20066;-66
2022/10/02 00:46:28;;;;;;;0.20;0.20;;;;;;;12.85;88.40;99396.00;5097851;28;20131;-67
2022/10/02 00:49:22;;;;;;;0.30;0.30;;;;;;;12.74;88.50;99382.53;5097457;28;20044;-67
2022/10/02 00:52:01;;;;;;;0.30;0.30;;;;;;;12.81;88.21;99404.59;5097458;28;20105;-66
2022/10/02 00:54:47;;;;;;;;;;;;;;;12.85;88.44;99401.13;5097891;28;20059;-67
2022/10/02 00:57:33;;;;;;;0.30;0.30;;;;;;;12.87;88.00;99396.81;5097580;28;19981;-66
2022/10/02 01:00:08;;;;;;;0.35;0.35;;;;;;;12.90;88.52;99394.22;5096326;28;20044;-66
2022/10/02 01:03:00;;;;;;;0.30;0.30;;;;;;;12.87;88.36;99395.97;5097058;28;20082;-67
2022/10/02 01:05:29;;;;;;;0.45;0.45;;;;;;;12.86;88.56;99397.69;5097118;28;20037;-67
2022/10/02 01:07:58;;;;;;;0.75;0.63;;;;;;;12.84;89.04;99408.84;5096965;28;20046;-66
2022/10/02 01:10:28;;;;;;;0.40;0.40;;;;;;;12.83;88.89;99408.00;5097398;28;20040;-67
2022/10/02 01:12:58;;;;;;;0.30;0.30;;;;;;;12.83;89.30;99418.25;5097341;28;20395;-67
2022/10/02 01:15:33;;;;;;;0.68;0.60;;;;;;;12.83;89.04;99415.69;5096997;28;20044;-66
2022/10/02 01:18:03;;;;;;;0.50;0.50;;;;;;;12.84;89.47;99409.66;5097208;28;20040;-66
2022/10/02 01:20:38;;;;;;;0.22;0.22;;;;;;;12.80;89.33;99415.72;5096871;28;20046;-67
2022/10/02 01:23:16;;;;;;;0.30;0.30;;;;;;;12.83;89.41;99417.38;5097457;28;20555;-67
2022/10/02 01:25:47;;;;;;;0.30;0.30;;;;;;;12.86;89.30;99415.59;5096861;28;20048;-67
2022/10/02 01:28:15;;;;;;;0.28;0.28;;;;;;;12.75;89.46;99409.81;5096694;28;20047;-67
2022/10/02 01:30:49;;;;;;;0.33;0.33;;;;;;;12.86;89.38;99423.28;5096696;28;20040;-67
2022/10/02 01:33:18;;;;;;;0.30;0.30;;;;;;;12.93;88.70;99432.63;5096895;28;20082;-67
2022/10/02 01:35:47;;;;;;;;;;;;;;;12.96;88.43;99429.97;5097312;28;20067;-67
2022/10/02 01:38:21;;;;;;;0.30;0.30;;;;;;;12.97;88.12;99436.81;5096495;28;19920;-67
2022/10/02 01:40:51;;;;;;;0.30;0.30;;;;;;;12.96;87.88;99432.53;5095729;28;20044;-66
2022/10/02 01:43:23;;;;;;;0.35;0.35;;;;;;;13.00;87.82;99430.81;5095364;28;20044;-66
2022/10/02 01:46:01;;;;;;;0.40;0.40;;;;;;;12.98;87.36;99441.06;5096767;28;20048;-67
2022/10/02 01:48:44;;;;;;;0.50;0.50;;;;;;;13.00;87.68;99447.03;5096525;28;20039;-66
2022/10/02 01:51:32;;;;;;;0.32;0.32;;;;;;;12.99;87.41;99445.31;5096293;28;20135;-67
2022/10/02 01:54:15;;;;;;;0.30;0.30;;;;;;;12.98;87.52;99453.84;5096600;28;20482;-67
2022/10/02 01:56:55;;;;;;;0.47;0.47;;;;;;;12.96;87.81;99458.16;5096589;28;20059;-67
2022/10/02 01:59:39;;;;;;;0.40;0.40;;;;;;;12.90;88.20;99442.03;5096146;28;20054;-67
2022/10/02 02:02:15;;;;;;;0.40;0.40;;;;;;;12.93;88.21;99460.78;5096462;28;20052;-67
2022/10/02 02:04:53;;;;;;;0.70;0.70;;;;;;;12.93;88.27;99455.66;5095935;28;20041;-67
2022/10/02 02:07:44;;;;;;;0.35;0.35;;;;;;;12.93;88.49;99460.78;5096296;28;20044;-67
2022/10/02 02:10:20;;;;;;;0.30;0.30;;;;;;;12.93;88.08;99455.66;5095843;28;20036;-66
2022/10/02 02:12:58;;;;;;;0.52;0.52;;;;;;;12.95;88.34;99463.31;5095910;28;20052;-66
2022/10/02 02:15:34;;;;;;;0.73;0.73;;;;;;;12.94;88.36;99462.47;5095863;28;20050;-67
2022/10/02 02:18:11;;;;;;;0.30;0.30;;;;;;;12.89;87.92;99468.50;5096198;28;20067;-67
2022/10/02 02:20:46;;;;;;;0.40;0.40;;;;;;;12.89;88.23;99464.25;5096320;28;20393;-67
2022/10/02 02:23:20;;;;;;;0.35;0.35;;;;;;;12.90;88.24;99476.19;5096113;28;20070;-66
2022/10/02 02:25:54;;;;;;;0.40;0.40;;;;;;;12.90;88.17;99478.75;5095988;28;20051;-66
2022/10/02 02:28:27;;;;;;;0.35;0.35;;;;;;;12.86;88.02;99473.69;5095564;28;20489;-67
2022/10/02 02:30:59;;;;;;;0.43;0.43;;;;;;;12.91;87.71;99488.13;5095545;28;20044;-67
2022/10/02 02:33:34;;;;;;;0.40;0.40;;;;;;;12.90;87.70;99486.44;5095473;28;20072;-67
2022/10/02 02:36:09;;;;;;;0.28;0.28;;;;;;;12.86;87.48;99495.00;5095780;28;20059;-66
2022/10/02 02:38:46;;;;;;;0.47;0.47;;;;;;;12.79;87.69;99485.72;5095395;28;20058;-67
2022/10/02 02:41:20;;;;;;;0.30;0.30;;;;;;;12.80;87.71;99505.34;5095342;28;20425;-66
2022/10/02 02:43:55;;;;;;;0.40;0.40;;;;;;;12.73;87.48;99504.59;5095324;28;20052;-67
2022/10/02 02:46:28;;;;;;;0.30;0.30;;;;;;;12.71;87.44;99510.59;5095229;28;20139;-66
2022/10/02 02:49:03;;;;;;;0.40;0.40;;;;;;;12.70;87.69;99511.44;5095111;28;20517;-66
2022/10/02 02:51:38;;;;;;;0.40;0.40;;;;;;;12.73;87.17;99511.41;5095065;28;20045;-66
2022/10/02 02:54:12;;;;;;;0.30;0.30;;;;;;;12.72;86.92;99507.16;5095143;28;20059;-66
2022/10/02 02:56:44;;;;;;;1.88;0.77;;;;;;;12.67;87.25;99519.16;5095043;28;20048;-66
2022/10/02 02:59:15;;;;;;;0.52;0.52;;;;;;;12.71;86.86;99518.28;5095276;28;20098;-66
2022/10/02 03:01:44;;;;;;;0.28;0.28;;;;;;;12.68;86.44;99516.59;5094039;28;20044;-66
2022/10/02 03:04:14;;;;;;;0.43;0.43;;;;;;;12.65;86.53;99511.50;5094787;28;20090;-66
2022/10/02 03:06:46;;;;;;;0.28;0.28;;;;;;;12.67;86.53;99524.28;5094876;28;20048;-66
2022/10/02 03:09:19;;;;;;;0.40;0.40;;;;;;;12.66;86.49;99518.34;5094958;28;20052;-66
2022/10/02 03:11:58;;;;;;;0.30;0.30;;;;;;;12.66;86.31;99527.72;5095021;28;20048;-66
2022/10/02 03:15:05;;;;;;;0.57;0.57;;;;;;;12.68;85.71;99528.53;5094806;28;20051;-66
2022/10/02 03:17:51;;;;;;;0.40;0.40;;;;;;;12.66;85.90;99526.00;5091897;28;20044;-66
2022/10/02 03:20:29;;;;;;;0.40;0.40;;;;;;;12.63;85.42;99532.88;5094688;28;20559;-66
2022/10/02 03:23:06;;;;;;;1.00;0.77;;;;;;;12.61;85.34;99539.72;5094541;28;20127;-66
2022/10/02 03:25:43;;;;;;;0.40;0.40;;;;;;;12.58;85.50;99539.75;5094660;28;20039;-66
2022/10/02 03:28:17;;;;;;;0.28;0.28;;;;;;;12.57;85.29;99546.56;5094452;28;20128;-66
2022/10/02 03:31:11;;;;;;;0.40;0.40;;;;;;;12.57;85.15;99558.56;5094644;28;20047;-66
2022/10/02 03:33:41;;;;;;;0.43;0.43;;;;;;;12.53;84.67;99567.09;5094686;28;20179;-66
2022/10/02 03:36:11;;;;;;;0.30;0.30;;;;;;;12.47;84.69;99564.63;5094476;28;20059;-66
2022/10/02 03:38:42;;;;;;;0.40;0.40;;;;;;;12.47;85.19;99562.06;5094318;28;20139;-66
2022/10/02 03:41:11;;;;;;;0.40;0.40;;;;;;;12.51;84.56;99574.81;5094564;28;20050;-66
2022/10/02 03:43:40;;;;;;;0.30;0.30;;;;;;;12.50;84.61;99577.41;5094414;28;20074;-66
2022/10/02 03:46:10;;;;;;;0.50;0.50;;;;;;;12.51;85.00;99582.50;5094239;28;20044;-66
2022/10/02 03:48:39;;;;;;;0.38;0.38;;;;;;;12.52;85.01;99591.03;5094148;28;20044;-66
2022/10/02 03:51:07;;;;;;;0.30;0.30;;;;;;;12.50;84.97;99582.53;5094301;28;20051;-66
2022/10/02 03:53:36;;;;;;;0.30;0.30;;;;;;;12.47;84.99;99583.41;5093996;28;20048;-66
2022/10/02 03:56:09;;;;;;;0.50;0.50;;;;;;;12.42;85.03;99584.28;5094354;28;20063;-66
2022/10/02 03:58:44;;;;;;;0.43;0.43;;;;;;;12.34;85.02;99580.94;5094273;28;20401;-67
2022/10/02 04:01:21;;;;;;;0.30;0.30;;;;;;;12.24;85.11;99584.47;5093934;28;20040;-66
2022/10/02 04:03:54;;;;;;;0.38;0.38;;;;;;;12.14;85.36;99586.25;5093740;28;20056;-66
2022/10/02 04:06:28;;;;;;;0.30;0.30;;;;;;;12.04;85.27;99600.00;5093213;28;20077;-66
2022/10/02 04:09:03;;;;;;;1.08;0.88;;;;;;;11.88;85.27;99595.84;5093921;28;20486;-66
2022/10/02 04:11:35;;;;;;;0.30;0.30;;;;;;;11.78;85.48;99596.78;5094035;28;20044;-66
2022/10/02 04:14:12;;;;;;;0.20;0.20;;;;;;;11.68;85.69;99606.22;5093745;28;20509;-66
2022/10/02 04:16:49;;;;;;;0.55;0.55;;;;;;;11.50;85.84;99613.97;5094031;28;20440;-66
2022/10/02 04:19:23;;;;;;;0.30;0.30;;;;;;;11.40;85.59;99622.53;5094054;28;20094;-66
2022/10/02 04:21:56;;;;;;;0.22;0.22;;;;;;;11.25;85.75;99613.22;5093910;28;20532;-66
2022/10/02 04:24:31;;;;;;;0.30;0.30;;;;;;;11.18;86.00;99610.72;5093606;28;20048;-66
2022/10/02 04:27:06;;;;;;;0.45;0.45;;;;;;;11.09;85.81;99618.41;5093609;28;20052;-66
2022/10/02 04:29:40;;;;;;;0.40;0.40;;;;;;;11.08;86.23;99635.47;5093845;28;20044;-67
2022/10/02 04:32:15;;;;;;;0.38;0.38;;;;;;;11.00;86.04;99637.19;5093662;28;20052;-65
2022/10/02 04:34:44;;;;;;;0.40;0.40;;;;;;;10.98;86.28;99632.94;5093517;28;20566;-66
2022/10/02 04:37:36;;;;;;;0.73;0.70;;;;;;;10.95;86.38;99638.03;5093497;28;20055;-66
2022/10/02 04:40:30;;;;;;;0.40;0.40;;;;;;;11.02;86.53;99634.59;5093508;28;20055;-66
2022/10/02 04:43:21;;;;;;;0.38;0.38;;;;;;;11.01;86.47;99644.00;5093496;28;20052;-66
2022/10/02 04:46:07;;;;;;;0.40;0.40;;;;;;;10.90;86.70;99645.72;5093815;28;20156;-66
2022/10/02 04:48:58;;;;;;;0.40;0.40;;;;;;;10.84;86.88;99650.00;5093499;28;20098;-66
2022/10/02 04:51:43;;;;;;;0.30;0.30;;;;;;;10.78;86.60;99651.69;5093358;28;20044;-66
2022/10/02 04:54:31;;;;;;;0.30;0.30;;;;;;;10.77;86.63;99650.00;5094233;28;20509;-66
2022/10/02 04:57:23;;;;;;;0.40;0.40;;;;;;;10.73;86.80;99658.50;5093369;28;20083;-66
2022/10/02 05:00:11;;;;;;;0.30;0.30;;;;;;;10.75;87.05;99661.91;5093327;28;20044;-66
2022/10/02 05:03:04;;;;;;;2.65;0.68;;;;;;;10.64;87.06;99661.09;5093675;28;20052;-65
2022/10/02 05:05:55;;;;;;;0.50;0.50;;;;;;;10.57;86.71;99656.84;5093252;28;20051;-66
2022/10/02 05:08:42;;;;;;;0.30;0.30;;;;;;;10.48;86.75;99646.66;5093334;28;20052;-66
2022/10/02 05:11:34;;;;;;;0.98;0.95;;;;;;;10.50;87.25;99649.19;5093258;28;20086;-66
2022/10/02 05:14:35;;;;;;;0.30;0.30;;;;;;;10.49;87.30;99653.44;5093290;28;20051;-66
2022/10/02 05:17:22;;;;;;;0.63;0.63;;;;;;;10.49;87.31;99657.69;5093481;28;20059;-66
2022/10/02 05:20:04;;;;;;;0.55;0.55;;;;;;;10.57;87.30;99667.06;5096951;28;20048;-66
2022/10/02 05:22:57;;;;;;;0.20;0.20;;;;;;;10.59;87.64;99665.34;5097317;28;20059;-66
2022/10/02 05:25:53;;;;;;;0.30;0.30;;;;;;;10.63;87.57;99664.47;5097180;28;20498;-66
2022/10/02 05:28:46;;;;;;;0.30;0.30;;;;;;;10.75;87.88;99656.81;5096857;28;20060;-66
2022/10/02 05:31:29;;;;;;;1.10;0.73;;;;;;;10.87;87.80;99655.94;5096678;28;20040;-66
2022/10/02 05:34:09;;;;;;;0.30;0.30;;;;;;;10.93;87.93;99658.47;5096795;28;20048;-66
2022/10/02 05:36:49;;;;;;;0.70;0.70;;;;;;;11.02;88.13;99648.22;5096883;28;20405;-66
2022/10/02 05:39:26;;;;;;;0.40;0.40;;;;;;;11.02;88.03;99655.03;5097153;28;20469;-66
2022/10/02 05:42:07;;;;;;;0.40;0.40;;;;;;;11.01;88.19;99654.22;5096517;28;20044;-66
2022/10/02 05:44:39;;;;;;;0.30;0.30;;;;;;;11.04;88.20;99656.72;5096505;28;20098;-66
2022/10/02 05:47:15;;;;;;;0.30;0.30;;;;;;;11.03;88.21;99651.66;5096408;28;20044;-66
2022/10/02 05:49:50;;;;;;;0.30;0.30;;;;;;;11.07;88.27;99663.53;5096713;28;20488;-67
2022/10/02 05:52:26;;;;;;;0.30;0.30;;;;;;;11.05;88.32;99650.78;5096262;28;20085;-66
2022/10/02 05:55:00;;;;;;;0.45;0.45;;;;;;;11.21;88.26;99664.34;5096660;28;20139;-66
2022/10/02 05:57:36;;;;;;;0.22;0.22;;;;;;;11.26;88.47;99665.16;5096746;28;20493;-66
2022/10/02 06:00:17;;;;;;;0.50;0.50;;;;;;;11.34;88.39;99664.31;5096406;28;20048;-66
2022/10/02 06:02:57;;;;;;;0.30;0.30;;;;;;;11.44;88.46;99665.94;5096133;28;20040;-66
2022/10/02 06:05:33;;;;;;;0.63;0.52;;;;;;;11.61;88.36;99665.88;5095583;28;20383;-67
2022/10/02 06:08:07;;;;;;;0.40;0.40;;;;;;;11.76;88.07;99653.03;5096040;28;20482;-66
2022/10/02 06:10:41;;;;;;;0.30;0.30;;;;;;;11.90;87.95;99653.78;5095772;28;20124;-66
2022/10/02 06:13:19;;;;;;;0.40;0.40;;;;;;;12.01;87.98;99659.69;5096227;28;20036;-66
2022/10/02 06:15:52;;;;;;;1.33;1.23;;;;;;;12.14;87.37;99657.06;5095540;28;20489;-66
2022/10/02 06:18:25;;;;;;;0.60;0.60;;;;;;;12.28;87.02;99660.34;5095781;28;20547;-66
2022/10/02 06:20:58;;;;;;;0.73;0.73;;;;;;;12.42;86.79;99650.84;5095798;28;20128;-66
2022/10/02 06:23:35;;;;;;;0.55;0.55;;;;;;;12.58;86.27;99662.63;5095755;28;20052;-66
2022/10/02 06:26:10;;;;;;;0.40;0.40;;;;;;;12.72;86.07;99656.53;5095648;28;20397;-65
2022/10/02 06:28:44;;;;;;;0.40;0.40;;;;;;;12.85;85.31;99659.81;5094625;28;20047;-64
2022/10/02 06:31:21;;;;;;;0.40;0.40;;;;;;;13.00;85.01;99662.22;5096031;28;20048;-65
2022/10/02 06:33:52;;;;;;;1.45;0.80;;;;;;;13.11;84.66;99655.28;5095076;28;20047;-65
2022/10/02 06:36:44;;;;;;;9.43;0.60;;;;;;;13.19;84.01;99663.75;5095439;28;20394;-65
2022/10/02 06:39:29;;;;;;;2.55;1.20;;;;;;;13.29;83.59;99655.06;5095319;28;20090;-65
2022/10/02 06:42:13;;;;;;;0.38;0.38;;;;;;;13.41;83.35;99654.91;5095645;28;20048;-65
2022/10/02 06:44:53;;;;;;;1.50;0.52;;;;;;;13.55;83.16;99661.59;5094949;28;20044;-64
2022/10/02 06:47:35;;;;;;;1.60;0.75;;;;;;;13.65;82.64;99647.78;5095255;28;20040;-65
2022/10/02 06:50:26;;;;;;;5.57;1.35;;;;;;;13.78;82.24;99659.56;5095127;28;20078;-65
2022/10/02 06:53:04;;;;;;;0.60;0.52;;;;;;;13.88;81.75;99651.72;5094808;28;20487;-65
2022/10/02 06:55:44;;;;;;;1.48;1.38;;;;;;;13.99;81.48;99652.41;5095342;28;20059;-67
2022/10/02 06:58:30;;;;;;;0.30;0.30;;;;;;;14.15;81.49;99652.19;5094680;28;20147;-67
2022/10/02 07:01:08;;;;;;;1.38;1.27;;;;;;;14.21;80.99;99645.22;5094489;28;20090;-66
2022/10/02 07:04:00;;;;;;;0.97;0.87;;;;;;;14.37;81.03;99662.09;5094404;28;20052;-66
2022/10/02 07:06:40;;;;;;;0.30;0.30;;;;;;;14.52;80.41;99666.13;5094850;28;20482;-66
2022/10/02 07:09:33;;;;;;;0.50;0.50;;;;;;;14.61;80.25;99669.38;5094248;28;20044;-67
2022/10/02 07:12:17;;;;;;;0.60;0.60;;;;;;;14.73;79.37;99682.03;5093371;28;20048;-67
2022/10/02 07:15:02;;;;;;;0.50;0.50;;;;;;;14.83;78.72;99677.56;5094674;28;20043;-67
2022/10/02 07:17:48;;;;;;;0.30;0.30;;;;;;;14.94;78.41;99674.81;5094989;28;20112;-67
2022/10/02 07:20:41;;;;;;;9.52;0.88;;;;;;;15.08;77.41;99690.81;5094355;28;20044;-65
2022/10/02 07:23:31;;;;;;;3.45;0.52;;;;;;;15.21;76.46;99690.56;5094349;28;20513;-65
2022/10/02 07:26:06;;;;;;;;;;;;;;;15.34;75.92;99686.03;5093987;28;20055;-66
2022/10/02 07:28:41;;;;;;;0.30;0.30;;;;;;;15.43;75.40;99680.69;5094600;28;19983;-66
2022/10/02 07:31:21;;;;;;;0.98;0.88;;;;;;;15.61;75.26;99695.78;5094011;28;20040;-65
2022/10/02 07:34:06;;;;;;;0.52;0.52;;;;;;;15.75;74.45;99703.22;5094937;28;20401;-65
2022/10/02 07:36:47;;;;;;;0.35;0.35;;;;;;;15.76;72.85;99703.19;5094391;28;20048;-65
2022/10/02 07:39:31;;;;;;;0.43;0.43;;;;;;;15.66;72.31;99693.97;5094222;28;20130;-65
2022/10/02 07:42:22;;;;;;;0.40;0.40;;;;;;;15.63;71.96;99693.19;5094085;28;20051;-65
2022/10/02 07:45:24;;;;;;;0.70;0.70;;;;;;;15.62;71.74;99712.09;5094521;28;20478;-66
2022/10/02 07:48:18;;;;;;;0.52;0.52;;;;;;;15.49;71.69;99692.63;5094354;28;20040;-66
2022/10/02 07:51:01;;;;;;;0.30;0.30;;;;;;;15.60;71.96;99699.22;5094147;28;20051;-65
2022/10/02 07:53:39;;;;;;;0.68;0.68;;;;;;;15.83;71.70;99706.47;5093970;28;20093;-66
2022/10/02 07:56:18;;;;;;;0.28;0.28;;;;;;;15.93;71.59;99698.50;5093960;28;20490;-65
2022/10/02 07:58:54;;;;;;;0.40;0.40;;;;;;;16.16;71.75;99704.88;5093994;28;20083;-65
2022/10/02 08:01:26;;;;;;;0.40;0.40;;;;;;;16.18;70.85;99709.13;5093900;28;20044;-65
2022/10/02 08:03:59;;;;;;;0.55;0.55;;;;;;;16.06;70.54;99709.38;5093803;28;20513;-65
2022/10/02 08:06:29;;;;;;;0.50;0.50;;;;;;;16.08;70.26;99708.47;5094213;28;20055;-64
2022/10/02 08:09:03;;;;;;;0.30;0.30;;;;;;;16.20;69.94;99711.63;5093826;28;20056;-66
2022/10/02 08:11:37;;;;;;;0.40;0.40;;;;;;;16.32;69.49;99719.09;5093762;28;20482;-65
2022/10/02 08:14:11;;;;;;;0.50;0.50;;;;;;;16.25;69.04;99720.09;5093223;28;20451;-64
2022/10/02 08:16:45;;;;;;;0.50;0.50;;;;;;;16.33;68.75;99718.22;5093752;28;20481;-67
2022/10/02 08:19:17;;;;;;;0.43;0.43;;;;;;;16.39;68.57;99723.22;5094248;28;20403;-66
2022/10/02 08:21:54;;;;;;;0.40;0.40;;;;;;;16.35;68.51;99726.75;5093984;28;20496;-66
2022/10/02 08:24:26;;;;;;;0.40;0.40;;;;;;;16.30;68.70;99734.59;5093994;28;20089;-66
2022/10/02 08:27:01;;;;;;;0.85;0.82;;;;;;;16.31;68.96;99732.88;5093588;28;20509;-66
2022/10/02 08:29:40;;;;;;;1.65;0.63;;;;;;;16.28;68.87;99736.34;5094053;28;20052;-66
2022/10/02 08:32:11;;;;;;;1.42;1.00;;;;;;;16.18;67.88;99728.88;5093476;28;20055;-66
2022/10/02 08:34:42;;;;;;;0.98;0.98;;;;;;;16.07;67.89;99742.84;5093483;28;20052;-66
2022/10/02 08:37:31;;;;;;;0.30;0.30;;;;;;;16.25;67.60;99731.25;5094071;28;20454;-66
2022/10/02 08:40:28;;;;;;;0.40;0.40;;;;;;;16.55;67.88;99734.91;5093722;28;20048;-66
2022/10/02 08:43:20;;;;;;;0.45;0.45;;;;;;;16.56;66.94;99734.00;5093496;28;20044;-66
2022/10/02 08:46:07;;;;;;;0.30;0.30;;;;;;;16.63;66.77;99726.09;5093803;28;20048;-66
2022/10/02 08:48:55;;;;;;;0.50;0.50;;;;;;;16.83;67.26;99727.31;5093373;28;20063;-66
2022/10/02 08:51:55;;;;;;;0.50;0.50;;;;;;;16.98;66.87;99727.78;5094496;28;20052;-66
2022/10/02 08:54:48;;;;;;;0.30;0.30;;;;;;;17.04;66.47;99727.63;5097396;28;20051;-66
2022/10/02 08:57:44;;;;;;;0.50;0.50;;;;;;;17.08;66.00;99730.97;5097839;28;20528;-66
2022/10/02 09:00:22;;;;;;;0.70;0.70;;;;;;;17.12;65.15;99712.78;5093529;28;20135;-65
2022/10/02 09:03:33;;;;;;;0.85;0.85;;;;;;;17.35;64.38;99731.06;5097218;28;20525;-65
2022/10/02 09:06:30;;;;;;;0.40;0.40;;;;;;;17.49;64.17;99722.13;5097199;28;20043;-66
2022/10/02 09:09:37;;;;;;;0.40;0.40;;;;;;;17.59;63.82;99726.16;5097261;28;20044;-66
2022/10/02 09:12:32;;;;;;;0.63;0.63;;;;;;;17.59;63.39;99715.84;5097055;28;20040;-66
2022/10/02 09:15:14;;;;;;;0.70;0.70;;;;;;;17.72;63.42;99719.75;5097065;28;20052;-66
2022/10/02 09:17:47;;;;;;;0.40;0.40;;;;;;;17.88;63.45;99705.47;5097093;28;20563;-66
2022/10/02 09:20:51;;;;;;;0.55;0.55;;;;;;;18.03;63.08;99705.03;5096900;28;20068;-66
2022/10/02 09:23:51;;;;;;;0.50;0.50;;;;;;;18.04;62.29;99701.56;5096694;28;20036;-66
2022/10/02 09:26:25;;;;;;;;;;;;;;;18.04;61.84;99706.75;5097280;28;20130;-66
2022/10/02 09:29:29;;;;;;;0.40;0.40;;;;;;;18.13;61.33;99701.28;5097097;28;19943;-66
2022/10/02 09:32:25;;;;;;;0.60;0.60;;;;;;;18.19;61.20;99706.25;5096978;28;20111;-65
2022/10/02 09:35:21;;;;;;;0.50;0.50;;;;;;;18.39;61.33;99711.63;5097023;28;20071;-66
2022/10/02 09:38:20;;;;;;;0.70;0.70;;;;;;;18.49;60.45;99699.31;5096649;28;20048;-65
2022/10/02 09:41:20;;;;;;;0.50;0.50;;;;;;;18.60;60.16;99703.22;5096298;28;20097;-65
2022/10/02 09:44:22;;;;;;;0.40;0.40;;;;;;;18.63;59.15;99703.13;5096374;28;20040;-66
2022/10/02 09:47:20;;;;;;;0.30;0.30;;;;;;;18.73;59.52;99703.66;5095151;28;20039;-66
2022/10/02 09:50:26;;;;;;;1.25;0.60;;;;;;;18.81;59.35;99695.66;5096106;28;20040;-66
2022/10/02 09:53:17;;;;;;;0.65;0.60;;;;;;;18.84;59.25;99695.53;5096364;28;20044;-66
2022/10/02 09:56:11;;;;;;;0.40;0.40;;;;;;;18.69;58.17;99697.72;5096478;28;20150;-66
2022/10/02 09:59:10;;;;;;;0.45;0.45;;;;;;;18.57;58.96;99700.72;5096408;28;20044;-66
2022/10/02 10:02:02;;;;;;;4.55;0.93;;;;;;;18.67;58.61;99699.53;5096058;28;20048;-66
2022/10/02 10:04:54;;;;;;;0.50;0.50;;;;;;;18.78;57.78;99700.91;5095011;28;20113;-66
2022/10/02 10:08:02;;;;;;;0.40;0.40;;;;;;;18.70;57.47;99703.75;5095941;28;20123;-66
2022/10/02 10:10:59;;;;;;;0.60;0.60;;;;;;;18.66;57.90;99708.19;5095843;28;20055;-66
2022/10/02 10:13:59;;;;;;;2.33;2.13;;;;;;;18.61;58.00;99689.41;5096118;28;20051;-66
2022/10/02 10:17:07;;;;;;;0.85;0.85;;;;;;;18.64;57.73;99694.44;5096160;28;20486;-65
2022/10/02 10:20:02;;;;;;;0.70;0.70;;;;;;;18.43;56.55;99694.28;5087606;28;20048;-67
2022/10/02 10:22:56;;;;;;;8.90;1.75;;;;;;;18.44;57.35;99702.00;5096111;28;20040;-67
2022/10/02 10:25:50;;;;;;;0.40;0.40;;;;;;;18.52;58.04;99712.94;5096044;28;20581;-67
2022/10/02 10:28:54;;;;;;;0.60;0.60;;;;;;;18.72;57.73;99715.75;5095633;28;20048;-66
2022/10/02 10:31:58;;;;;;;0.57;0.57;;;;;;;19.05;57.46;99705.97;5095531;28;20052;-67
2022/10/02 10:35:04;;;;;;;0.47;0.47;;;;;;;19.14;56.08;99702.25;5095378;28;20048;-67
2022/10/02 10:40:53;;;;;;;0.50;0.50;;;;;;;19.09;56.00;99691.22;5095354;28;20097;-66
2022/10/02 10:44:03;;;;;;;0.50;0.50;;;;;;;18.88;55.03;99695.41;5095689;28;20048;-66
2022/10/02 10:46:57;;;;;;;0.40;0.40;;;;;;;18.78;54.94;99685.41;5090230;28;20040;-66
2022/10/02 10:50:01;;;;;;;0.52;0.52;;;;;;;18.91;55.80;99686.69;5095322;28;20052;-67
2022/10/02 10:52:50;;;;;;;0.47;0.47;;;;;;;19.12;56.21;99680.75;5094543;28;20428;-66
2022/10/02 10:55:34;;;;;;;0.40;0.40;;;;;;;19.22;56.79;99671.75;5094992;28;20083;-66
2022/10/02 10:58:20;;;;;;;0.55;0.55;;;;;;;19.09;56.43;99676.53;5095044;28;20097;-66
2022/10/02 11:01:05;;;;;;;0.55;0.55;;;;;;;18.81;56.34;99675.81;5095310;28;20094;-65
2022/10/02 11:03:57;;;;;;;0.68;0.68;;;;;;;18.63;56.97;99672.09;5094707;28;20115;-65
2022/10/02 11:06:50;;;;;;;0.40;0.40;;;;;;;18.56;57.07;99675.78;5094915;28;20040;-66
2022/10/02 11:09:41;;;;;;;1.55;0.70;;;;;;;18.60;57.29;99687.69;5094436;28;20076;-66
2022/10/02 11:12:31;;;;;;;0.50;0.50;;;;;;;18.80;57.12;99673.25;5094728;28;20085;-66
2022/10/02 11:15:19;;;;;;;0.40;0.40;;;;;;;18.92;56.64;99678.88;5094627;28;20128;-66
2022/10/02 11:18:05;;;;;;;0.70;0.70;;;;;;;18.85;57.24;99676.53;5093417;28;20405;-66
2022/10/02 11:21:06;;;;;;;0.43;0.43;;;;;;;18.61;57.53;99684.25;5094941;28;20051;-65
2022/10/02 11:23:50;;;;;;;0.60;0.60;;;;;;;18.50;58.11;99683.72;5094410;28;20040;-66
2022/10/02 11:26:39;;;;;;;0.50;0.50;;;;;;;18.57;58.76;99680.03;5094790;28;20044;-64
2022/10/02 11:29:42;;;;;;;0.80;0.80;;;;;;;18.60;58.58;99681.69;5094488;28;20108;-66
2022/10/02 11:32:33;;;;;;;0.70;0.70;;;;;;;18.69;58.86;99674.47;5094674;28;20474;-65
2022/10/02 11:35:22;;;;;;;0.40;0.40;;;;;;;18.85;58.08;99666.19;5094022;28;20048;-66
2022/10/02 11:38:09;;;;;;;1.20;0.90;;;;;;;19.08;57.16;99664.50;5094310;28;20135;-66
2022/10/02 11:40:52;;;;;;;0.50;0.50;;;;;;;19.35;56.94;99660.06;5094417;28;20507;-66
2022/10/02 11:43:43;;;;;;;0.50;0.50;;;;;;;19.47;55.83;99657.06;5094093;28;20555;-66
2022/10/02 11:46:32;;;;;;;0.30;0.30;;;;;;;19.75;55.05;99652.50;5094122;28;20052;-66
2022/10/02 11:49:28;;;;;;;0.47;0.47;;;;;;;19.91;53.96;99642.41;5094009;28;20051;-66
2022/10/02 11:52:21;;;;;;;0.63;0.55;;;;;;;19.91;53.79;99645.00;5066820;28;20048;-65
2022/10/02 11:55:04;;;;;;;0.47;0.47;;;;;;;19.98;53.88;99641.28;5094061;28;20036;-66
2022/10/02 11:57:48;;;;;;;0.73;0.73;;;;;;;19.95;53.17;99631.88;5093869;28;20040;-66
2022/10/02 12:00:55;;;;;;;0.40;0.40;;;;;;;19.49;53.75;99639.72;5093928;28;20050;-65
2022/10/02 12:03:35;;;;;;;0.50;0.50;;;;;;;19.11;55.12;99645.41;5093596;28;20052;-66
2022/10/02 12:06:14;;;;;;;0.60;0.60;;;;;;;18.82;56.68;99645.59;5094163;28;20036;-66
2022/10/02 12:08:54;;;;;;;0.40;0.40;;;;;;;18.46;58.29;99653.72;5093694;28;20046;-65
2022/10/02 12:11:32;;;;;;;0.50;0.50;;;;;;;18.14;59.66;99651.28;5094042;28;20048;-65
2022/10/02 12:14:09;;;;;;;;;;;;;;;17.92;61.13;99645.13;5092026;28;20059;-66
2022/10/02 12:16:54;;;;;;;0.43;0.43;;;;;;;17.74;61.85;99635.34;5093562;28;19945;-67
2022/10/02 12:26:57;;;;;;;0.93;0.93;;;;;;;17.62;62.27;99635.72;5091419;28;20040;-66
2022/10/02 12:28:22;;;;;;;0.40;0.40;;;;;;;17.50;63.41;99625.72;5093948;28;20130;-66
2022/10/02 12:31:04;;;;;;;0.65;0.65;;;;;;;17.55;63.19;99623.88;5093851;28;20040;-66
2022/10/02 12:33:45;;;;;;;0.40;0.40;;;;;;;17.57;63.01;99607.47;5093384;28;20097;-66
2022/10/02 12:36:33;;;;;;;0.50;0.50;;;;;;;17.58;63.09;99609.16;5093562;28;20498;-66
2022/10/02 12:39:19;;;;;;;0.50;0.50;;;;;;;17.58;62.63;99608.31;5093338;28;20058;-66
2022/10/02 12:42:06;;;;;;;0.40;0.40;;;;;;;17.55;62.53;99608.41;5093417;28;20486;-66
2022/10/02 12:45:01;;;;;;;0.40;0.40;;;;;;;17.60;62.34;99622.00;5093118;28;20044;-66
2022/10/02 12:47:50;;;;;;;0.60;0.60;;;;;;;17.72;61.73;99611.31;5084685;28;20085;-65
2022/10/02 12:50:33;;;;;;;1.17;0.65;;;;;;;17.83;61.18;99606.66;5093274;28;20056;-65
2022/10/02 12:53:30;;;;;;;1.08;0.98;;;;;;;17.91;60.03;99596.94;5093406;28;20040;-66
2022/10/02 12:56:21;;;;;;;0.68;0.65;;;;;;;17.95;59.76;99595.94;5092750;28;20058;-66